• Join FlightAware (Why Join?)
  • Login
  • US Flag 
03:51AM EDT


 

Airport Tracker/Info


-or-


 

Live Flight TrackerFlight Track Log ✈ JBU33 ✈ 25-Jun-2013 ✈ KBTV - KJFK

Flight Track Log - Related Links

Times and Time Zones

All times are in EDT time to prevent confusion due to time zone crossing. See the JBU33 flight status page for this flight to view local times or setup timezone preferences in your user account.

Time Position Orientation Groundspeed Altitude Reporting Facility
EDT Latitude Longitude Course Direction KTS MPH feet Rate Location/Type
02:42PM 44.2975 -73.0144 196° South 258 297 9,100  Level Boston Center
02:43PM 43.9912 -73.3252 194° South  Level FlightAware Approximate
02:43PM 44.2183 -73.0050 175° South 264 304 11,200  Level Boston Center
02:44PM 43.9113 -73.3522 196° South  Level FlightAware Approximate
02:44PM 44.1289 -72.9606 160° South 318 366 13,000  Level Boston Center
02:45PM 43.8322 -73.3839 196° South  Level FlightAware Approximate
02:45PM 44.0333 -72.9108 159° South 364 419 15,700  Level Boston Center
02:46PM 43.7531 -73.4156 196° South  Level FlightAware Approximate
02:46PM 43.9356 -72.8667 162° South 369 425 17,800  Level Boston Center
02:47PM 43.6741 -73.4472 196° South  Level FlightAware Approximate
02:47PM 43.8311 -72.9006 193° South 369 425 19,700  Level Boston Center
02:48PM 43.7267 -72.9458 197° South 377 434 21,300 1,740 Climbing Boston Center
02:49PM 43.6308 -72.9908 199° South 401 461 23,200 1,320 Climbing Boston Center
02:50PM 43.5097 -73.0411 197° South 406 467 24,000 360 Climbing Boston Center
02:51PM 43.4197 -73.0803 198° South 416 479 24,000  Level Boston Center
02:52PM 43.3028 -73.1333 198° South 416 479 24,000  Level Boston Center
02:53PM 43.1900 -73.1833 198° South 416 479 24,000  Level Boston Center
02:54PM 43.0814 -73.2303 198° South 422 486 24,000 600 Level Boston Center
02:55PM 42.9664 -73.2800 198° South 427 491 25,300 960 Climbing Boston Center
02:56PM 42.8556 -73.3267 197° South 427 491 26,000 300 Climbing Boston Center
02:57PM 42.7447 -73.3758 198° South 427 491 26,000  Level Boston Center
02:58PM 42.6169 -73.4275 197° South 427 491 26,000  Level Boston Center
02:59PM 42.5042 -73.4764 198° South 427 491 26,000  Level Boston Center
03:00PM 42.3911 -73.5281 199° South 427 491 26,000  Level Boston Center
03:01PM 42.2800 -73.5739 197° South 427 491 26,000  Level Boston Center
03:02PM 42.1711 -73.6333 202° Southwest 422 486 26,000  Level Boston Center
03:03PM 42.0578 -73.7011 204° Southwest 434 499 26,000 -300 Level Boston Center
03:05PM 41.8322 -73.8222 202° Southwest 475 547 25,200 -420 Descending New York Center
03:06PM 41.7244 -73.8811 202° Southwest 450 518 24,700 -480 Descending New York Center
03:07PM 41.6167 -73.9400 202° Southwest 430 495 24,300 -840 Descending New York Center
03:08PM 41.5133 -73.9958 202° Southwest 416 479 23,100 -1,980 Descending New York Center
03:09PM 41.4097 -74.0517 202° Southwest 416 479 20,400 -1,560 Descending New York Center
03:10PM 41.3181 -74.1247 211° Southwest 402 463 20,000 -240 Descending New York Center
03:11PM 41.2208 -74.1778 202° Southwest 391 450 20,000 -360 Level New York Center
03:12PM 41.1086 -74.1636 175° South 383 441 19,400 -540 Descending New York Center
03:13PM 40.9947 -74.1469 174° South 397 457 19,000 -240 Descending New York Center
03:14PM 40.9028 -74.0792 151° Southeast 372 428 19,000 -780 Level New York Center
03:15PM 40.8514 -73.9808 125° Southeast 347 399 17,500 -1,920 Descending New York Center
03:16PM 40.7919 -73.8628 124° Southeast 352 405 15,300 -1,980 Descending New York Center
03:17PM 40.7422 -73.7731 126° Southeast 357 411 13,600 -1,140 Descending New York Center
03:18PM 40.6781 -73.6717 130° Southeast 345 397 13,100 -960 Descending New York Center
03:19PM 40.5975 -73.6519 169° South 312 359 11,700 -1,560 Descending New York Center
03:20PM 40.5081 -73.6372 173° South 304 350 10,000 -1,680 Descending New York Center
03:21PM 40.4364 -73.6697 199° South 283 326 8,400 -1,500 Descending New York Center
03:22PM 40.3811 -73.7192 214° Southwest 283 326 7,000 -1,620 Descending New York Center
03:23PM 40.3764 -73.8222 267° West 249 287 5,200 -1,620 Descending New York Center
03:24PM 40.3972 -73.8997 289° West 247 284 3,800 -1,140 Descending New York Center
03:25PM 40.4494 -73.9700 314° West 247 284 3,000 -420 Descending New York Center
03:26PM 40.5183 -73.9678 North 235 270 3,000 -180 Level New York Center
03:27PM 40.6000 -73.9167 25° Northeast 219 252 2,700 -660 Descending New York TRACON
03:28PM 40.6500 -73.8667 37° Northeast 222 255 1,600 -1,020 Descending New York TRACON
03:29PM 40.6667 -73.8167 66° East 166 191 700 -900 Descending New York TRACON